sensor_id;sensor_type;location;lat;lon;timestamp;temperature;humidity
37786;DHT22;23625;48.784;9.336;2023-05-07T00:02:13;12.70;99.90
37786;DHT22;23625;48.784;9.336;2023-05-07T00:04:39;12.70;99.90
37786;DHT22;23625;48.784;9.336;2023-05-07T00:07:05;12.70;99.90
37786;DHT22;23625;48.784;9.336;2023-05-07T00:09:30;12.70;99.90
37786;DHT22;23625;48.784;9.336;2023-05-07T00:11:56;12.70;99.90
37786;DHT22;23625;48.784;9.336;2023-05-07T00:14:22;12.70;99.90
37786;DHT22;23625;48.784;9.336;2023-05-07T00:16:47;12.70;99.90
37786;DHT22;23625;48.784;9.336;2023-05-07T00:19:13;12.60;99.90
37786;DHT22;23625;48.784;9.336;2023-05-07T00:21:38;12.60;99.90
37786;DHT22;23625;48.784;9.336;2023-05-07T00:24:04;12.60;99.90
37786;DHT22;23625;48.784;9.336;2023-05-07T00:26:30;12.60;99.90
37786;DHT22;23625;48.784;9.336;2023-05-07T00:28:55;12.60;99.90
37786;DHT22;23625;48.784;9.336;2023-05-07T00:31:21;12.60;99.90
37786;DHT22;23625;48.784;9.336;2023-05-07T00:33:46;12.50;99.90
37786;DHT22;23625;48.784;9.336;2023-05-07T00:36:12;12.50;99.90
37786;DHT22;23625;48.784;9.336;2023-05-07T00:38:37;12.50;99.90
37786;DHT22;23625;48.784;9.336;2023-05-07T00:41:03;12.50;99.90
37786;DHT22;23625;48.784;9.336;2023-05-07T00:43:29;12.50;99.90
37786;DHT22;23625;48.784;9.336;2023-05-07T00:45:55;12.50;99.90
37786;DHT22;23625;48.784;9.336;2023-05-07T00:48:21;12.50;99.90
37786;DHT22;23625;48.784;9.336;2023-05-07T00:50:46;12.50;99.90
37786;DHT22;23625;48.784;9.336;2023-05-07T00:53:13;12.40;99.90
37786;DHT22;23625;48.784;9.336;2023-05-07T00:55:39;12.30;99.90
37786;DHT22;23625;48.784;9.336;2023-05-07T00:58:05;12.30;99.90
37786;DHT22;23625;48.784;9.336;2023-05-07T01:00:31;12.30;99.90
37786;DHT22;23625;48.784;9.336;2023-05-07T01:02:57;12.30;99.90
37786;DHT22;23625;48.784;9.336;2023-05-07T01:05:24;12.20;99.90
37786;DHT22;23625;48.784;9.336;2023-05-07T01:07:52;12.20;99.90
37786;DHT22;23625;48.784;9.336;2023-05-07T01:10:19;12.20;99.90
37786;DHT22;23625;48.784;9.336;2023-05-07T01:12:45;12.10;99.90
37786;DHT22;23625;48.784;9.336;2023-05-07T01:15:12;12.10;99.90
37786;DHT22;23625;48.784;9.336;2023-05-07T01:17:40;12.10;99.90
37786;DHT22;23625;48.784;9.336;2023-05-07T01:20:07;12.10;99.90
37786;DHT22;23625;48.784;9.336;2023-05-07T01:22:39;12.10;99.90
37786;DHT22;23625;48.784;9.336;2023-05-07T01:25:06;12.10;99.90
37786;DHT22;23625;48.784;9.336;2023-05-07T01:27:32;12.10;99.90
37786;DHT22;23625;48.784;9.336;2023-05-07T01:30:06;12.10;99.90
37786;DHT22;23625;48.784;9.336;2023-05-07T01:35:03;12.10;99.90
37786;DHT22;23625;48.784;9.336;2023-05-07T01:37:30;12.00;99.90
37786;DHT22;23625;48.784;9.336;2023-05-07T01:39:56;11.90;99.90
37786;DHT22;23625;48.784;9.336;2023-05-07T01:42:22;12.00;99.90
37786;DHT22;23625;48.784;9.336;2023-05-07T01:44:48;12.00;99.90
37786;DHT22;23625;48.784;9.336;2023-05-07T01:47:14;11.90;99.90
37786;DHT22;23625;48.784;9.336;2023-05-07T01:49:40;12.00;99.90
37786;DHT22;23625;48.784;9.336;2023-05-07T01:52:06;12.00;99.90
37786;DHT22;23625;48.784;9.336;2023-05-07T01:54:31;11.90;99.90
37786;DHT22;23625;48.784;9.336;2023-05-07T01:56:57;11.90;99.90
37786;DHT22;23625;48.784;9.336;2023-05-07T01:59:22;12.10;99.90
37786;DHT22;23625;48.784;9.336;2023-05-07T02:01:48;11.80;99.90
37786;DHT22;23625;48.784;9.336;2023-05-07T02:04:14;11.80;99.90
37786;DHT22;23625;48.784;9.336;2023-05-07T02:06:40;11.80;99.90
37786;DHT22;23625;48.784;9.336;2023-05-07T02:09:05;11.90;99.90
37786;DHT22;23625;48.784;9.336;2023-05-07T02:11:31;11.80;99.90
37786;DHT22;23625;48.784;9.336;2023-05-07T02:13:56;11.80;99.90
37786;DHT22;23625;48.784;9.336;2023-05-07T02:16:22;11.70;99.90
37786;DHT22;23625;48.784;9.336;2023-05-07T02:18:49;11.70;99.90
37786;DHT22;23625;48.784;9.336;2023-05-07T02:21:14;11.70;99.90
37786;DHT22;23625;48.784;9.336;2023-05-07T02:23:40;11.70;99.90
37786;DHT22;23625;48.784;9.336;2023-05-07T02:26:05;11.70;99.90
37786;DHT22;23625;48.784;9.336;2023-05-07T02:28:31;11.70;99.90
37786;DHT22;23625;48.784;9.336;2023-05-07T02:30:57;11.70;99.90
37786;DHT22;23625;48.784;9.336;2023-05-07T02:33:24;11.60;99.90
37786;DHT22;23625;48.784;9.336;2023-05-07T02:35:50;11.60;99.90
37786;DHT22;23625;48.784;9.336;2023-05-07T02:38:17;11.60;99.90
37786;DHT22;23625;48.784;9.336;2023-05-07T02:40:43;11.60;99.90
37786;DHT22;23625;48.784;9.336;2023-05-07T02:43:09;11.60;99.90
37786;DHT22;23625;48.784;9.336;2023-05-07T02:45:35;11.60;99.90
37786;DHT22;23625;48.784;9.336;2023-05-07T02:48:03;11.50;99.90
37786;DHT22;23625;48.784;9.336;2023-05-07T02:50:28;11.50;99.90
37786;DHT22;23625;48.784;9.336;2023-05-07T02:52:54;11.50;99.90
37786;DHT22;23625;48.784;9.336;2023-05-07T02:55:20;11.40;99.90
37786;DHT22;23625;48.784;9.336;2023-05-07T02:57:46;11.40;99.90
37786;DHT22;23625;48.784;9.336;2023-05-07T03:00:16;11.40;99.90
37786;DHT22;23625;48.784;9.336;2023-05-07T03:02:43;11.30;99.90
37786;DHT22;23625;48.784;9.336;2023-05-07T03:05:09;11.30;99.90
37786;DHT22;23625;48.784;9.336;2023-05-07T03:07:35;11.30;99.90
37786;DHT22;23625;48.784;9.336;2023-05-07T03:10:01;11.30;99.90
37786;DHT22;23625;48.784;9.336;2023-05-07T03:12:26;11.20;99.90
37786;DHT22;23625;48.784;9.336;2023-05-07T03:14:52;11.20;99.90
37786;DHT22;23625;48.784;9.336;2023-05-07T03:17:17;11.20;99.90
37786;DHT22;23625;48.784;9.336;2023-05-07T03:19:43;11.20;99.90
37786;DHT22;23625;48.784;9.336;2023-05-07T03:22:09;11.10;99.90
37786;DHT22;23625;48.784;9.336;2023-05-07T03:24:34;11.10;99.90
37786;DHT22;23625;48.784;9.336;2023-05-07T03:27:00;11.10;99.90
37786;DHT22;23625;48.784;9.336;2023-05-07T03:29:26;11.00;99.90
37786;DHT22;23625;48.784;9.336;2023-05-07T03:31:52;11.00;99.90
37786;DHT22;23625;48.784;9.336;2023-05-07T03:34:17;11.00;99.90
37786;DHT22;23625;48.784;9.336;2023-05-07T03:36:50;10.90;99.90
37786;DHT22;23625;48.784;9.336;2023-05-07T03:39:16;10.90;99.90
37786;DHT22;23625;48.784;9.336;2023-05-07T03:41:42;10.90;99.90
37786;DHT22;23625;48.784;9.336;2023-05-07T03:44:07;10.90;99.90
37786;DHT22;23625;48.784;9.336;2023-05-07T03:46:33;10.80;99.90
37786;DHT22;23625;48.784;9.336;2023-05-07T03:48:59;10.70;99.90
37786;DHT22;23625;48.784;9.336;2023-05-07T03:51:25;10.70;99.90
37786;DHT22;23625;48.784;9.336;2023-05-07T03:53:51;10.70;99.90
37786;DHT22;23625;48.784;9.336;2023-05-07T03:56:19;10.70;99.90
37786;DHT22;23625;48.784;9.336;2023-05-07T03:58:47;10.60;99.90
37786;DHT22;23625;48.784;9.336;2023-05-07T04:01:12;10.70;99.90
37786;DHT22;23625;48.784;9.336;2023-05-07T04:03:38;10.60;99.90
37786;DHT22;23625;48.784;9.336;2023-05-07T04:06:03;10.60;99.90
37786;DHT22;23625;48.784;9.336;2023-05-07T04:08:32;10.60;99.90
37786;DHT22;23625;48.784;9.336;2023-05-07T04:10:58;11.00;99.90
37786;DHT22;23625;48.784;9.336;2023-05-07T04:13:24;10.60;99.90
37786;DHT22;23625;48.784;9.336;2023-05-07T04:15:51;10.60;99.90
37786;DHT22;23625;48.784;9.336;2023-05-07T04:18:17;10.60;99.90
37786;DHT22;23625;48.784;9.336;2023-05-07T04:20:42;10.60;99.90
37786;DHT22;23625;48.784;9.336;2023-05-07T04:23:08;10.60;99.90
37786;DHT22;23625;48.784;9.336;2023-05-07T04:25:34;10.70;99.90
37786;DHT22;23625;48.784;9.336;2023-05-07T04:27:59;10.70;99.90
37786;DHT22;23625;48.784;9.336;2023-05-07T04:30:25;10.70;99.90
37786;DHT22;23625;48.784;9.336;2023-05-07T04:32:51;10.70;99.90
37786;DHT22;23625;48.784;9.336;2023-05-07T04:35:17;10.70;99.90
37786;DHT22;23625;48.784;9.336;2023-05-07T04:37:43;10.70;99.90
37786;DHT22;23625;48.784;9.336;2023-05-07T04:40:08;10.80;99.90
37786;DHT22;23625;48.784;9.336;2023-05-07T04:42:34;10.80;99.90
37786;DHT22;23625;48.784;9.336;2023-05-07T04:45:01;10.80;99.90
37786;DHT22;23625;48.784;9.336;2023-05-07T04:47:27;10.80;99.90
37786;DHT22;23625;48.784;9.336;2023-05-07T04:49:53;10.90;99.90
37786;DHT22;23625;48.784;9.336;2023-05-07T04:52:18;11.00;99.90
37786;DHT22;23625;48.784;9.336;2023-05-07T04:54:44;11.10;99.90
37786;DHT22;23625;48.784;9.336;2023-05-07T04:57:09;11.10;99.90
37786;DHT22;23625;48.784;9.336;2023-05-07T04:59:35;11.20;99.90
37786;DHT22;23625;48.784;9.336;2023-05-07T05:02:00;11.30;99.90
37786;DHT22;23625;48.784;9.336;2023-05-07T05:04:26;11.30;99.90
37786;DHT22;23625;48.784;9.336;2023-05-07T05:06:52;11.30;99.90
37786;DHT22;23625;48.784;9.336;2023-05-07T05:09:18;11.40;99.90
37786;DHT22;23625;48.784;9.336;2023-05-07T05:11:47;11.30;99.90
37786;DHT22;23625;48.784;9.336;2023-05-07T05:14:13;11.40;99.90
37786;DHT22;23625;48.784;9.336;2023-05-07T05:16:38;11.40;99.90
37786;DHT22;23625;48.784;9.336;2023-05-07T05:19:04;11.40;99.90
37786;DHT22;23625;48.784;9.336;2023-05-07T05:21:31;11.40;99.90
37786;DHT22;23625;48.784;9.336;2023-05-07T05:23:58;11.50;99.90
37786;DHT22;23625;48.784;9.336;2023-05-07T05:26:23;11.60;99.90
37786;DHT22;23625;48.784;9.336;2023-05-07T05:28:49;11.60;99.90
37786;DHT22;23625;48.784;9.336;2023-05-07T05:31:18;11.60;99.90
37786;DHT22;23625;48.784;9.336;2023-05-07T05:33:43;11.60;99.90
37786;DHT22;23625;48.784;9.336;2023-05-07T05:36:10;11.60;99.90
37786;DHT22;23625;48.784;9.336;2023-05-07T05:38:36;11.70;99.90
37786;DHT22;23625;48.784;9.336;2023-05-07T05:41:02;11.70;99.90
37786;DHT22;23625;48.784;9.336;2023-05-07T05:43:27;11.90;99.90
37786;DHT22;23625;48.784;9.336;2023-05-07T05:45:53;12.00;99.90
37786;DHT22;23625;48.784;9.336;2023-05-07T05:48:18;12.10;99.90
37786;DHT22;23625;48.784;9.336;2023-05-07T05:50:44;12.30;99.90
37786;DHT22;23625;48.784;9.336;2023-05-07T05:53:10;12.50;99.90
37786;DHT22;23625;48.784;9.336;2023-05-07T05:55:36;12.70;99.90
37786;DHT22;23625;48.784;9.336;2023-05-07T05:58:01;12.90;99.90
37786;DHT22;23625;48.784;9.336;2023-05-07T06:00:28;13.00;99.90
37786;DHT22;23625;48.784;9.336;2023-05-07T06:02:54;13.10;99.90
37786;DHT22;23625;48.784;9.336;2023-05-07T06:05:20;13.20;99.90
37786;DHT22;23625;48.784;9.336;2023-05-07T06:07:45;13.20;99.90
37786;DHT22;23625;48.784;9.336;2023-05-07T06:10:11;13.30;99.90
37786;DHT22;23625;48.784;9.336;2023-05-07T06:12:37;13.50;99.90
37786;DHT22;23625;48.784;9.336;2023-05-07T06:15:03;13.60;99.90
37786;DHT22;23625;48.784;9.336;2023-05-07T06:17:29;13.80;99.90
37786;DHT22;23625;48.784;9.336;2023-05-07T06:19:54;14.10;99.90
37786;DHT22;23625;48.784;9.336;2023-05-07T06:22:20;14.10;99.90
37786;DHT22;23625;48.784;9.336;2023-05-07T06:24:45;14.30;99.90
37786;DHT22;23625;48.784;9.336;2023-05-07T06:27:11;14.40;99.90
37786;DHT22;23625;48.784;9.336;2023-05-07T06:29:37;14.30;99.90
37786;DHT22;23625;48.784;9.336;2023-05-07T06:32:09;14.40;99.90
37786;DHT22;23625;48.784;9.336;2023-05-07T06:34:36;14.40;99.90
37786;DHT22;23625;48.784;9.336;2023-05-07T06:37:01;14.40;99.90
37786;DHT22;23625;48.784;9.336;2023-05-07T06:39:27;14.50;99.90
37786;DHT22;23625;48.784;9.336;2023-05-07T06:41:53;14.50;99.90
37786;DHT22;23625;48.784;9.336;2023-05-07T06:44:18;14.60;99.90
37786;DHT22;23625;48.784;9.336;2023-05-07T06:46:44;14.60;99.90
37786;DHT22;23625;48.784;9.336;2023-05-07T06:49:10;14.70;99.90
37786;DHT22;23625;48.784;9.336;2023-05-07T06:51:36;14.80;99.90
37786;DHT22;23625;48.784;9.336;2023-05-07T06:54:01;15.00;99.90
37786;DHT22;23625;48.784;9.336;2023-05-07T06:56:29;15.10;99.90
37786;DHT22;23625;48.784;9.336;2023-05-07T06:58:55;15.20;99.90
37786;DHT22;23625;48.784;9.336;2023-05-07T07:01:21;15.40;99.90
37786;DHT22;23625;48.784;9.336;2023-05-07T07:03:46;15.40;99.90
37786;DHT22;23625;48.784;9.336;2023-05-07T07:06:12;15.50;99.90
37786;DHT22;23625;48.784;9.336;2023-05-07T07:08:38;15.70;99.90
37786;DHT22;23625;48.784;9.336;2023-05-07T07:11:04;15.80;99.90
37786;DHT22;23625;48.784;9.336;2023-05-07T07:13:30;16.00;99.90
37786;DHT22;23625;48.784;9.336;2023-05-07T07:15:56;16.20;99.90
37786;DHT22;23625;48.784;9.336;2023-05-07T07:18:22;16.40;99.90
37786;DHT22;23625;48.784;9.336;2023-05-07T07:20:47;16.60;99.90
37786;DHT22;23625;48.784;9.336;2023-05-07T07:23:13;16.80;99.90
37786;DHT22;23625;48.784;9.336;2023-05-07T07:25:39;16.80;99.90
37786;DHT22;23625;48.784;9.336;2023-05-07T07:28:05;17.10;99.90
37786;DHT22;23625;48.784;9.336;2023-05-07T07:30:31;17.20;99.90
37786;DHT22;23625;48.784;9.336;2023-05-07T07:32:56;17.40;99.90
37786;DHT22;23625;48.784;9.336;2023-05-07T07:35:28;17.60;99.90
37786;DHT22;23625;48.784;9.336;2023-05-07T07:37:53;17.90;99.90
37786;DHT22;23625;48.784;9.336;2023-05-07T07:40:19;18.10;99.90
37786;DHT22;23625;48.784;9.336;2023-05-07T07:42:45;18.30;99.90
37786;DHT22;23625;48.784;9.336;2023-05-07T07:45:11;18.60;99.90
37786;DHT22;23625;48.784;9.336;2023-05-07T07:47:37;18.70;99.90
37786;DHT22;23625;48.784;9.336;2023-05-07T07:50:02;18.80;99.90
37786;DHT22;23625;48.784;9.336;2023-05-07T07:52:28;18.90;99.90
37786;DHT22;23625;48.784;9.336;2023-05-07T07:54:53;19.10;99.90
37786;DHT22;23625;48.784;9.336;2023-05-07T07:57:19;19.30;99.90
37786;DHT22;23625;48.784;9.336;2023-05-07T07:59:45;19.80;99.90
37786;DHT22;23625;48.784;9.336;2023-05-07T08:02:10;20.10;99.90
37786;DHT22;23625;48.784;9.336;2023-05-07T08:04:36;20.20;99.90
37786;DHT22;23625;48.784;9.336;2023-05-07T08:07:03;20.60;97.70
37786;DHT22;23625;48.784;9.336;2023-05-07T08:09:28;20.80;97.00
37786;DHT22;23625;48.784;9.336;2023-05-07T08:11:54;21.20;96.90
37786;DHT22;23625;48.784;9.336;2023-05-07T08:14:19;21.30;97.00
37786;DHT22;23625;48.784;9.336;2023-05-07T08:16:45;21.40;95.40
37786;DHT22;23625;48.784;9.336;2023-05-07T08:19:11;21.50;93.40
37786;DHT22;23625;48.784;9.336;2023-05-07T08:21:39;21.70;96.60
37786;DHT22;23625;48.784;9.336;2023-05-07T08:24:05;21.90;94.60
37786;DHT22;23625;48.784;9.336;2023-05-07T08:26:31;22.00;92.70
37786;DHT22;23625;48.784;9.336;2023-05-07T08:28:56;21.90;89.50
37786;DHT22;23625;48.784;9.336;2023-05-07T08:31:22;21.90;82.30
37786;DHT22;23625;48.784;9.336;2023-05-07T08:33:47;22.10;91.30
37786;DHT22;23625;48.784;9.336;2023-05-07T08:36:13;22.30;84.40
37786;DHT22;23625;48.784;9.336;2023-05-07T08:38:39;22.40;84.50
37786;DHT22;23625;48.784;9.336;2023-05-07T08:41:06;22.70;85.40
37786;DHT22;23625;48.784;9.336;2023-05-07T08:43:33;22.90;80.60
37786;DHT22;23625;48.784;9.336;2023-05-07T08:46:01;22.90;79.70
37786;DHT22;23625;48.784;9.336;2023-05-07T08:48:29;23.20;79.20
37786;DHT22;23625;48.784;9.336;2023-05-07T08:50:58;23.40;74.60
37786;DHT22;23625;48.784;9.336;2023-05-07T08:53:23;23.40;69.50
37786;DHT22;23625;48.784;9.336;2023-05-07T08:55:49;23.30;70.60
37786;DHT22;23625;48.784;9.336;2023-05-07T08:58:15;23.20;69.50
37786;DHT22;23625;48.784;9.336;2023-05-07T09:00:42;23.10;71.20
37786;DHT22;23625;48.784;9.336;2023-05-07T09:03:07;23.10;74.70
37786;DHT22;23625;48.784;9.336;2023-05-07T09:05:33;23.30;77.50
37786;DHT22;23625;48.784;9.336;2023-05-07T09:08:01;23.70;69.00
37786;DHT22;23625;48.784;9.336;2023-05-07T09:10:28;23.70;66.70
37786;DHT22;23625;48.784;9.336;2023-05-07T09:12:54;24.00;64.80
37786;DHT22;23625;48.784;9.336;2023-05-07T09:15:20;24.00;65.20
37786;DHT22;23625;48.784;9.336;2023-05-07T09:17:45;24.30;63.40
37786;DHT22;23625;48.784;9.336;2023-05-07T09:20:11;24.20;63.60
37786;DHT22;23625;48.784;9.336;2023-05-07T09:22:37;23.70;62.40
37786;DHT22;23625;48.784;9.336;2023-05-07T09:25:04;23.70;64.10
37786;DHT22;23625;48.784;9.336;2023-05-07T09:27:30;23.80;65.90
37786;DHT22;23625;48.784;9.336;2023-05-07T09:29:56;24.00;65.30
37786;DHT22;23625;48.784;9.336;2023-05-07T09:32:22;24.20;63.80
37786;DHT22;23625;48.784;9.336;2023-05-07T09:34:47;24.50;64.40
37786;DHT22;23625;48.784;9.336;2023-05-07T09:37:13;24.80;66.20
37786;DHT22;23625;48.784;9.336;2023-05-07T09:39:46;24.70;63.20
37786;DHT22;23625;48.784;9.336;2023-05-07T09:42:12;24.60;65.60
37786;DHT22;23625;48.784;9.336;2023-05-07T09:44:38;24.70;63.70
37786;DHT22;23625;48.784;9.336;2023-05-07T09:47:08;24.60;63.10
37786;DHT22;23625;48.784;9.336;2023-05-07T09:49:37;24.80;62.70
37786;DHT22;23625;48.784;9.336;2023-05-07T09:52:06;25.10;64.00
37786;DHT22;23625;48.784;9.336;2023-05-07T09:54:34;25.00;61.20
37786;DHT22;23625;48.784;9.336;2023-05-07T09:57:01;25.00;61.10
37786;DHT22;23625;48.784;9.336;2023-05-07T09:59:32;25.20;61.30
37786;DHT22;23625;48.784;9.336;2023-05-07T10:01:59;25.20;60.20
37786;DHT22;23625;48.784;9.336;2023-05-07T10:04:26;25.40;60.30
37786;DHT22;23625;48.784;9.336;2023-05-07T10:06:52;25.60;58.80
37786;DHT22;23625;48.784;9.336;2023-05-07T10:09:19;25.80;59.70
37786;DHT22;23625;48.784;9.336;2023-05-07T10:11:45;25.50;60.60
37786;DHT22;23625;48.784;9.336;2023-05-07T10:14:14;25.30;60.30
37786;DHT22;23625;48.784;9.336;2023-05-07T10:16:41;25.10;59.70
37786;DHT22;23625;48.784;9.336;2023-05-07T10:19:07;24.90;60.90
37786;DHT22;23625;48.784;9.336;2023-05-07T10:21:36;24.70;62.40
37786;DHT22;23625;48.784;9.336;2023-05-07T10:26:36;25.10;62.80
37786;DHT22;23625;48.784;9.336;2023-05-07T10:34:37;24.70;62.50
37786;DHT22;23625;48.784;9.336;2023-05-07T10:37:04;24.60;63.30
37786;DHT22;23625;48.784;9.336;2023-05-07T10:39:30;24.60;63.40
37786;DHT22;23625;48.784;9.336;2023-05-07T10:41:56;24.60;63.60
37786;DHT22;23625;48.784;9.336;2023-05-07T10:44:29;24.60;63.20
37786;DHT22;23625;48.784;9.336;2023-05-07T10:47:24;24.50;61.80
37786;DHT22;23625;48.784;9.336;2023-05-07T10:52:18;24.60;64.20
37786;DHT22;23625;48.784;9.336;2023-05-07T10:54:45;24.60;64.00
37786;DHT22;23625;48.784;9.336;2023-05-07T10:57:33;24.50;61.90
37786;DHT22;23625;48.784;9.336;2023-05-07T11:00:01;24.50;62.10
37786;DHT22;23625;48.784;9.336;2023-05-07T11:03:04;24.50;61.70
37786;DHT22;23625;48.784;9.336;2023-05-07T11:05:32;24.60;60.50
37786;DHT22;23625;48.784;9.336;2023-05-07T11:08:02;24.50;60.60
37786;DHT22;23625;48.784;9.336;2023-05-07T11:13:48;24.30;63.60
37786;DHT22;23625;48.784;9.336;2023-05-07T11:16:22;24.30;62.90
37786;DHT22;23625;48.784;9.336;2023-05-07T11:18:53;24.20;61.40
37786;DHT22;23625;48.784;9.336;2023-05-07T11:21:39;24.10;61.20
37786;DHT22;23625;48.784;9.336;2023-05-07T11:24:09;24.10;62.20
37786;DHT22;23625;48.784;9.336;2023-05-07T11:26:49;24.10;64.10
37786;DHT22;23625;48.784;9.336;2023-05-07T11:29:20;24.00;62.70
37786;DHT22;23625;48.784;9.336;2023-05-07T11:31:53;24.00;61.70
37786;DHT22;23625;48.784;9.336;2023-05-07T11:34:23;23.90;62.20
37786;DHT22;23625;48.784;9.336;2023-05-07T11:36:49;23.90;62.60
37786;DHT22;23625;48.784;9.336;2023-05-07T11:39:31;23.90;62.00
37786;DHT22;23625;48.784;9.336;2023-05-07T11:41:59;23.90;62.00
37786;DHT22;23625;48.784;9.336;2023-05-07T11:44:25;23.80;62.90
37786;DHT22;23625;48.784;9.336;2023-05-07T11:46:50;23.80;64.40
37786;DHT22;23625;48.784;9.336;2023-05-07T11:49:17;23.70;63.90
37786;DHT22;23625;48.784;9.336;2023-05-07T11:51:42;23.70;65.00
37786;DHT22;23625;48.784;9.336;2023-05-07T11:54:09;23.60;66.10
37786;DHT22;23625;48.784;9.336;2023-05-07T11:56:36;23.60;66.00
37786;DHT22;23625;48.784;9.336;2023-05-07T11:59:02;23.40;68.50
37786;DHT22;23625;48.784;9.336;2023-05-07T12:01:28;23.30;70.10
37786;DHT22;23625;48.784;9.336;2023-05-07T12:03:53;23.20;69.40
37786;DHT22;23625;48.784;9.336;2023-05-07T12:06:19;23.00;73.70
37786;DHT22;23625;48.784;9.336;2023-05-07T12:08:45;22.80;78.50
37786;DHT22;23625;48.784;9.336;2023-05-07T12:11:16;22.70;83.30
37786;DHT22;23625;48.784;9.336;2023-05-07T12:13:46;22.60;85.10
37786;DHT22;23625;48.784;9.336;2023-05-07T12:16:12;22.50;85.50
37786;DHT22;23625;48.784;9.336;2023-05-07T12:18:38;22.40;87.70
37786;DHT22;23625;48.784;9.336;2023-05-07T12:21:05;22.30;90.30
37786;DHT22;23625;48.784;9.336;2023-05-07T12:23:32;22.30;90.10
37786;DHT22;23625;48.784;9.336;2023-05-07T12:25:59;22.20;90.90
37786;DHT22;23625;48.784;9.336;2023-05-07T12:28:25;22.20;93.10
37786;DHT22;23625;48.784;9.336;2023-05-07T12:30:51;22.00;94.20
37786;DHT22;23625;48.784;9.336;2023-05-07T12:33:19;21.80;99.40
37786;DHT22;23625;48.784;9.336;2023-05-07T12:35:47;21.50;99.90
37786;DHT22;23625;48.784;9.336;2023-05-07T12:38:14;21.00;99.90
37786;DHT22;23625;48.784;9.336;2023-05-07T12:40:47;20.90;99.90
37786;DHT22;23625;48.784;9.336;2023-05-07T12:43:17;20.30;99.90
37786;DHT22;23625;48.784;9.336;2023-05-07T12:45:43;19.80;99.90
37786;DHT22;23625;48.784;9.336;2023-05-07T12:48:10;19.70;99.90
37786;DHT22;23625;48.784;9.336;2023-05-07T12:50:36;19.40;99.90
37786;DHT22;23625;48.784;9.336;2023-05-07T12:53:04;19.10;99.90
37786;DHT22;23625;48.784;9.336;2023-05-07T12:55:32;18.70;99.90
37786;DHT22;23625;48.784;9.336;2023-05-07T12:58:01;18.50;99.90
37786;DHT22;23625;48.784;9.336;2023-05-07T13:00:37;18.40;99.90
37786;DHT22;23625;48.784;9.336;2023-05-07T13:03:04;18.30;99.90
37786;DHT22;23625;48.784;9.336;2023-05-07T13:05:30;17.90;99.90
37786;DHT22;23625;48.784;9.336;2023-05-07T13:07:56;17.60;99.90
37786;DHT22;23625;48.784;9.336;2023-05-07T13:10:27;17.30;99.90
37786;DHT22;23625;48.784;9.336;2023-05-07T13:12:53;17.30;99.90
37786;DHT22;23625;48.784;9.336;2023-05-07T13:15:19;17.30;99.90
37786;DHT22;23625;48.784;9.336;2023-05-07T13:17:45;17.20;99.90
37786;DHT22;23625;48.784;9.336;2023-05-07T13:20:11;17.10;99.90
37786;DHT22;23625;48.784;9.336;2023-05-07T13:22:38;17.10;99.90
37786;DHT22;23625;48.784;9.336;2023-05-07T13:25:04;17.00;99.90
37786;DHT22;23625;48.784;9.336;2023-05-07T13:27:30;16.80;99.90
37786;DHT22;23625;48.784;9.336;2023-05-07T13:29:56;16.60;99.90
37786;DHT22;23625;48.784;9.336;2023-05-07T13:32:22;16.30;99.90
37786;DHT22;23625;48.784;9.336;2023-05-07T13:34:47;16.10;99.90
37786;DHT22;23625;48.784;9.336;2023-05-07T13:37:13;15.90;99.90
37786;DHT22;23625;48.784;9.336;2023-05-07T13:39:39;15.70;99.90
37786;DHT22;23625;48.784;9.336;2023-05-07T13:42:04;15.50;99.90
37786;DHT22;23625;48.784;9.336;2023-05-07T13:44:30;15.40;99.90
37786;DHT22;23625;48.784;9.336;2023-05-07T13:46:55;15.20;99.90
37786;DHT22;23625;48.784;9.336;2023-05-07T13:49:21;15.20;99.90
37786;DHT22;23625;48.784;9.336;2023-05-07T13:51:46;15.20;99.90
37786;DHT22;23625;48.784;9.336;2023-05-07T13:54:12;15.10;99.90
37786;DHT22;23625;48.784;9.336;2023-05-07T13:56:38;15.10;99.90
37786;DHT22;23625;48.784;9.336;2023-05-07T13:59:03;15.00;99.90
37786;DHT22;23625;48.784;9.336;2023-05-07T14:01:29;15.00;99.90
37786;DHT22;23625;48.784;9.336;2023-05-07T14:03:56;14.90;99.90
37786;DHT22;23625;48.784;9.336;2023-05-07T14:06:21;14.90;99.90
37786;DHT22;23625;48.784;9.336;2023-05-07T14:08:47;14.80;99.90
37786;DHT22;23625;48.784;9.336;2023-05-07T14:11:13;14.90;99.90
37786;DHT22;23625;48.784;9.336;2023-05-07T14:13:38;15.00;99.90
37786;DHT22;23625;48.784;9.336;2023-05-07T14:16:04;14.90;99.90
37786;DHT22;23625;48.784;9.336;2023-05-07T14:18:30;14.60;99.90
37786;DHT22;23625;48.784;9.336;2023-05-07T14:20:56;14.50;99.90
37786;DHT22;23625;48.784;9.336;2023-05-07T14:23:21;14.60;99.90
37786;DHT22;23625;48.784;9.336;2023-05-07T14:25:52;14.60;99.90
37786;DHT22;23625;48.784;9.336;2023-05-07T14:28:18;14.60;99.90
37786;DHT22;23625;48.784;9.336;2023-05-07T14:30:43;14.60;99.90
37786;DHT22;23625;48.784;9.336;2023-05-07T14:33:09;14.70;99.90
37786;DHT22;23625;48.784;9.336;2023-05-07T14:35:34;14.70;99.90
37786;DHT22;23625;48.784;9.336;2023-05-07T14:38:00;14.70;99.90
37786;DHT22;23625;48.784;9.336;2023-05-07T14:40:26;14.70;99.90
37786;DHT22;23625;48.784;9.336;2023-05-07T14:42:51;14.70;99.90
37786;DHT22;23625;48.784;9.336;2023-05-07T14:45:17;14.70;99.90
37786;DHT22;23625;48.784;9.336;2023-05-07T14:47:42;14.80;99.90
37786;DHT22;23625;48.784;9.336;2023-05-07T14:50:08;14.80;99.90
37786;DHT22;23625;48.784;9.336;2023-05-07T14:52:34;14.80;99.90
37786;DHT22;23625;48.784;9.336;2023-05-07T14:55:00;14.80;99.90
37786;DHT22;23625;48.784;9.336;2023-05-07T14:57:25;14.80;99.90
37786;DHT22;23625;48.784;9.336;2023-05-07T14:59:51;14.90;99.90
37786;DHT22;23625;48.784;9.336;2023-05-07T15:02:17;14.90;99.90
37786;DHT22;23625;48.784;9.336;2023-05-07T15:04:43;14.90;99.90
37786;DHT22;23625;48.784;9.336;2023-05-07T15:07:13;15.00;99.90
37786;DHT22;23625;48.784;9.336;2023-05-07T15:09:41;15.00;99.90
37786;DHT22;23625;48.784;9.336;2023-05-07T15:12:06;15.10;99.90
37786;DHT22;23625;48.784;9.336;2023-05-07T15:14:33;15.10;99.90
37786;DHT22;23625;48.784;9.336;2023-05-07T15:16:58;15.10;99.90
37786;DHT22;23625;48.784;9.336;2023-05-07T15:19:24;15.20;99.90
37786;DHT22;23625;48.784;9.336;2023-05-07T15:21:54;15.20;99.90
37786;DHT22;23625;48.784;9.336;2023-05-07T15:24:20;15.20;99.90
37786;DHT22;23625;48.784;9.336;2023-05-07T15:26:46;15.30;99.90
37786;DHT22;23625;48.784;9.336;2023-05-07T15:29:12;15.30;99.90
37786;DHT22;23625;48.784;9.336;2023-05-07T15:31:37;15.30;99.90
37786;DHT22;23625;48.784;9.336;2023-05-07T15:34:04;15.30;99.90
37786;DHT22;23625;48.784;9.336;2023-05-07T15:36:29;15.40;99.90
37786;DHT22;23625;48.784;9.336;2023-05-07T15:38:56;15.50;99.90
37786;DHT22;23625;48.784;9.336;2023-05-07T15:41:22;15.50;99.90
37786;DHT22;23625;48.784;9.336;2023-05-07T15:43:50;15.50;99.90